TimeEST,TemperatureF,Dew PointF,Humidity,Sea Level PressureIn,VisibilityMPH,Wind Direction,Wind SpeedMPH,Gust SpeedMPH,PrecipitationIn,Events,Conditions,WindDirDegrees,DateUTC
12:53 AM,16.0,6.1,65,30.13,10.0,NNW,15.0,25.3,0.00,,Scattered Clouds,340,2013-02-10 05:53:00
1:53 AM,16.0,3.9,59,30.15,10.0,NNW,18.4,-,N/A,,Clear,340,2013-02-10 06:53:00
2:53 AM,14.0,-0.9,52,30.18,10.0,NNW,12.7,-,N/A,,Clear,340,2013-02-10 07:53:00
3:53 AM,12.9,-2.0,51,30.19,10.0,NW,5.8,-,N/A,,Clear,310,2013-02-10 08:53:00
4:53 AM,10.0,-2.9,56,30.22,10.0,NW,6.9,-,N/A,,Clear,320,2013-02-10 09:53:00
5:53 AM,10.0,-4.0,53,30.23,10.0,NNW,9.2,-,N/A,,Clear,330,2013-02-10 10:53:00
6:53 AM,10.0,-4.0,53,30.26,10.0,NNW,8.1,-,N/A,,Clear,330,2013-02-10 11:53:00
7:53 AM,12.9,-4.0,47,30.28,10.0,NW,5.8,-,N/A,,Clear,320,2013-02-10 12:53:00
8:53 AM,17.1,-2.0,43,30.29,10.0,NW,4.6,-,N/A,,Clear,320,2013-02-10 13:53:00
9:53 AM,21.9,-0.9,37,30.31,10.0,NNW,11.5,-,N/A,,Clear,340,2013-02-10 14:53:00
10:53 AM,26.1,-0.0,32,30.32,10.0,NNW,11.5,-,N/A,,Clear,340,2013-02-10 15:53:00
11:53 AM,28.9,1.0,30,30.32,10.0,North,10.4,-,0.01,,Clear,10,2013-02-10 16:53:00
12:53 PM,32.0,-0.0,26,30.31,10.0,NW,9.2,-,N/A,,Clear,320,2013-02-10 17:53:00
1:53 PM,33.1,1.0,26,30.30,10.0,WSW,6.9,-,N/A,,Clear,240,2013-02-10 18:53:00
2:53 PM,34.0,-0.0,24,30.29,10.0,West,8.1,-,N/A,,Clear,280,2013-02-10 19:53:00
3:53 PM,33.1,1.0,26,30.30,10.0,WSW,8.1,-,N/A,,Clear,250,2013-02-10 20:53:00
4:53 PM,30.0,1.0,29,30.33,10.0,WSW,3.5,-,N/A,,Clear,250,2013-02-10 21:53:00
5:53 PM,28.0,-0.0,30,30.34,10.0,NW,3.5,-,N/A,,Clear,310,2013-02-10 22:53:00
6:53 PM,27.0,-0.9,30,30.35,10.0,WNW,5.8,-,N/A,,Clear,290,2013-02-10 23:53:00
7:53 PM,26.1,-0.0,32,30.35,10.0,WNW,5.8,-,N/A,,Clear,300,2013-02-11 00:53:00
8:53 PM,26.1,-0.0,32,30.35,10.0,NW,4.6,-,N/A,,Clear,310,2013-02-11 01:53:00
9:53 PM,21.9,1.0,40,30.33,10.0,Calm,Calm,-,N/A,,Clear,0,2013-02-11 02:53:00
10:53 PM,21.9,1.0,40,30.34,10.0,WNW,3.5,-,N/A,,Clear,300,2013-02-11 03:53:00
11:53 PM,21.0,-0.0,40,30.34,10.0,Calm,Calm,-,N/A,,Clear,0,2013-02-11 04:53:00